createdAt,value
2022-11-30T00:02:03.925Z,15.208134
2022-11-30T00:07:05.433Z,15.122524
2022-11-30T00:12:07.246Z,14.66291
2022-11-30T00:17:09.162Z,14.042998
2022-11-30T00:22:11.056Z,14.673766
2022-11-30T00:27:12.579Z,14.858868
2022-11-30T00:32:14.282Z,14.790626
2022-11-30T00:37:15.804Z,14.128622
2022-11-30T00:42:17.292Z,14.218304
2022-11-30T00:47:19.273Z,14.553282
2022-11-30T00:52:20.756Z,14.60262
2022-11-30T00:57:22.519Z,14.075308
2022-11-30T01:02:24.396Z,14.607126
2022-11-30T01:07:26.167Z,14.079718
2022-11-30T01:12:27.656Z,14.564924
2022-11-30T01:17:29.521Z,14.687892
2022-11-30T01:22:31.180Z,14.728492
2022-11-30T01:27:32.652Z,14.2273
2022-11-30T01:32:34.258Z,14.450004
2022-11-30T01:37:35.944Z,14.111064
2022-11-30T01:42:37.746Z,14.066922
2022-11-30T01:47:39.758Z,14.360146
2022-11-30T01:52:41.538Z,14.302598
2022-11-30T01:57:43.321Z,14.427154
2022-11-30T02:02:45.035Z,13.223086
2022-11-30T02:07:47.011Z,13.588242
2022-11-30T02:12:48.888Z,13.363436
2022-11-30T02:17:50.996Z,13.723124
2022-11-30T02:22:52.770Z,14.307008
2022-11-30T02:27:54.558Z,13.603074
2022-11-30T02:32:56.583Z,13.636184
2022-11-30T02:37:58.448Z,13.974066
2022-11-30T02:43:00.317Z,13.502008
2022-11-30T02:48:02.341Z,13.79948
2022-11-30T02:53:04.143Z,13.426548
2022-11-30T02:58:05.914Z,14.069568
2022-11-30T03:03:07.847Z,13.658682
2022-11-30T03:08:09.324Z,13.465112
2022-11-30T03:13:11.133Z,12.905872
2022-11-30T03:18:13.032Z,13.284802
2022-11-30T03:23:14.799Z,13.44773
2022-11-30T03:28:16.627Z,13.698672
2022-11-30T03:33:18.431Z,13.527614
2022-11-30T03:38:20.164Z,13.877152
2022-11-30T03:43:21.923Z,13.84696
2022-11-30T03:48:24.025Z,14.280358
2022-11-30T03:53:25.764Z,14.248754
2022-11-30T03:58:27.270Z,13.815356
2022-11-30T04:03:28.934Z,13.464502
2022-11-30T04:08:30.438Z,14.252282
2022-11-30T04:13:32.142Z,14.462094
2022-11-30T04:18:33.824Z,15.248124
2022-11-30T04:23:35.353Z,15.374796
2022-11-30T04:28:36.986Z,14.535098
2022-11-30T04:33:38.439Z,15.389532
2022-11-30T04:38:40.276Z,15.32007
2022-11-30T04:43:41.753Z,15.712162
2022-11-30T04:48:43.618Z,16.127906
2022-11-30T04:53:45.400Z,18.306078
2022-11-30T04:58:46.892Z,18.104556
2022-11-30T05:03:48.788Z,18.220996
2022-11-30T05:08:50.594Z,19.178832
2022-11-30T05:13:52.382Z,18.291884
2022-11-30T05:18:54.346Z,19.74106
2022-11-30T05:23:56.176Z,20.93867
2022-11-30T05:28:57.888Z,20.742956
2022-11-30T05:33:59.542Z,20.355884
2022-11-30T05:39:01.035Z,20.69743
2022-11-30T05:44:02.477Z,20.3461
2022-11-30T05:49:04.234Z,20.796298
2022-11-30T05:54:05.881Z,21.233754
2022-11-30T05:59:07.559Z,22.135168
2022-11-30T06:04:09.197Z,23.057154
2022-11-30T06:09:10.696Z,22.73854
2022-11-30T06:14:12.333Z,22.256942
2022-11-30T06:19:14.300Z,22.6229
2022-11-30T06:24:15.833Z,22.926506
2022-11-30T06:29:17.457Z,22.883938
2022-11-30T06:34:19.211Z,24.152668
2022-11-30T06:39:43.044Z,23.888726
2022-11-30T06:45:00.372Z,24.04825
2022-11-30T06:50:02.347Z,24.48017
2022-11-30T06:55:04.127Z,24.186904
2022-11-30T07:00:06.038Z,23.722322
2022-11-30T07:05:08.060Z,24.007202
2022-11-30T07:10:09.818Z,25.342804
2022-11-30T07:15:11.611Z,24.523634
2022-11-30T07:20:13.632Z,25.886646
2022-11-30T07:25:15.441Z,24.719362
2022-11-30T07:30:17.266Z,25.260748
2022-11-30T07:35:19.162Z,22.951908
2022-11-30T07:40:20.899Z,24.203432
2022-11-30T07:45:22.667Z,24.925538
2022-11-30T07:50:24.542Z,24.924602
2022-11-30T07:55:26.319Z,25.649612
2022-11-30T08:00:27.891Z,25.50994
2022-11-30T08:05:29.496Z,23.840608
2022-11-30T08:10:31.011Z,26.597002
2022-11-30T08:15:33.758Z,25.836276
2022-11-30T08:20:35.894Z,25.467712
2022-11-30T08:25:37.506Z,27.08696
2022-11-30T08:30:39.301Z,25.771834
2022-11-30T08:35:41.075Z,26.021176
2022-11-30T08:40:42.741Z,26.951236
2022-11-30T08:45:44.580Z,25.440356
2022-11-30T08:50:46.718Z,26.371448
2022-11-30T08:55:48.407Z,27.81744
2022-11-30T09:05:51.818Z,27.054054
2022-11-30T09:10:53.461Z,26.98322
2022-11-30T09:15:55.331Z,27.611304
2022-11-30T09:20:57.498Z,27.73955
2022-11-30T09:25:59.244Z,29.56514
2022-11-30T09:31:01.060Z,26.513332
2022-11-30T09:36:02.914Z,26.563892
2022-11-30T09:41:04.698Z,26.320928
2022-11-30T09:46:06.546Z,28.04697
2022-11-30T09:51:08.686Z,25.674486
2022-11-30T09:56:10.206Z,25.636328
2022-11-30T10:01:12.014Z,27.231056
2022-11-30T10:06:13.782Z,25.29356
2022-11-30T10:11:15.575Z,25.54472
2022-11-30T10:16:17.442Z,26.082538
2022-11-30T10:21:19.447Z,26.51093
2022-11-30T10:26:21.522Z,26.677578
2022-11-30T10:31:23.395Z,27.554596
2022-11-30T10:36:25.337Z,27.28463
2022-11-30T10:41:27.163Z,26.989816
2022-11-30T10:46:28.964Z,26.927368
2022-11-30T10:51:30.787Z,24.889932
2022-11-30T10:56:32.274Z,26.738452
2022-11-30T11:01:33.981Z,26.98736
2022-11-30T11:06:35.690Z,27.742196
2022-11-30T11:11:37.225Z,25.729456
2022-11-30T11:16:38.721Z,27.352232
2022-11-30T11:21:40.519Z,27.713536
2022-11-30T11:26:42.023Z,28.483748
2022-11-30T11:31:43.497Z,26.869982
2022-11-30T11:36:45.094Z,26.937926
2022-11-30T11:41:46.641Z,27.942348
2022-11-30T11:46:48.246Z,28.563172
2022-11-30T11:51:50.115Z,27.901952
2022-11-30T11:56:51.719Z,26.267248
2022-11-30T12:01:53.358Z,28.256608
2022-11-30T12:06:54.907Z,28.419714
2022-11-30T12:11:56.406Z,27.302758
2022-11-30T12:16:58.252Z,28.994402
2022-11-30T12:22:00.298Z,27.696046
2022-11-30T12:27:02.198Z,26.937044
2022-11-30T12:32:03.961Z,27.503154
2022-11-30T12:37:05.842Z,27.347822
2022-11-30T12:42:07.666Z,29.720078
2022-11-30T12:47:09.505Z,27.299908
2022-11-30T12:52:11.526Z,27.346696
2022-11-30T12:57:13.345Z,26.715506
2022-11-30T13:02:15.822Z,27.498744
2022-11-30T13:07:17.899Z,28.494754
2022-11-30T13:12:19.770Z,26.608686
2022-11-30T13:17:21.566Z,27.091574
2022-11-30T13:22:23.619Z,27.702642
2022-11-30T13:27:25.059Z,26.240964
2022-11-30T13:32:56.049Z,27.18222
2022-11-30T13:38:20.707Z,28.692708
2022-11-30T13:43:30.086Z,28.457004
2022-11-30T13:48:32.021Z,29.271168
2022-11-30T13:53:33.705Z,28.397176
2022-11-30T13:58:35.487Z,27.64238
2022-11-30T14:03:37.118Z,27.883172
2022-11-30T14:08:38.813Z,28.656314
2022-11-30T14:13:40.293Z,27.134142
2022-11-30T14:18:41.860Z,26.717704
2022-11-30T14:23:43.631Z,27.66291
2022-11-30T14:28:45.121Z,28.118712
2022-11-30T14:33:46.901Z,27.933962
2022-11-30T14:38:48.476Z,27.327916
2022-11-30T14:43:49.988Z,27.55457
2022-11-30T14:48:51.512Z,26.493954
2022-11-30T14:53:53.364Z,27.5215
2022-11-30T14:58:55.247Z,27.329694
2022-11-30T15:03:57.020Z,27.083392
2022-11-30T15:08:58.610Z,26.446922
2022-11-30T15:14:00.107Z,26.530078
2022-11-30T15:19:01.563Z,26.674484
2022-11-30T15:24:03.586Z,26.71594
2022-11-30T15:29:05.102Z,26.4877
2022-11-30T15:34:06.638Z,26.440504
2022-11-30T15:39:08.558Z,26.283612
2022-11-30T15:44:10.116Z,26.563662
2022-11-30T15:49:11.593Z,25.953246
2022-11-30T15:54:13.400Z,25.546728
2022-11-30T15:59:15.017Z,25.88989
2022-11-30T16:04:16.606Z,26.058302
2022-11-30T16:09:18.360Z,26.339424
2022-11-30T16:14:20.316Z,26.230406
2022-11-30T16:19:22.120Z,25.417844
2022-11-30T16:24:24.173Z,25.73388
2022-11-30T16:29:25.818Z,25.23285
2022-11-30T16:34:27.617Z,25.655272
2022-11-30T16:39:29.438Z,25.461538
2022-11-30T16:44:31.066Z,25.440546
2022-11-30T16:49:32.663Z,25.017446
2022-11-30T16:54:34.538Z,24.872482
2022-11-30T16:59:36.135Z,24.070668
2022-11-30T17:04:37.651Z,24.377436
2022-11-30T17:09:39.208Z,24.16096
2022-11-30T17:14:40.744Z,24.488706
2022-11-30T17:19:42.709Z,24.113928
2022-11-30T17:24:44.539Z,24.008926
2022-11-30T17:29:46.087Z,23.15073
2022-11-30T17:34:48.097Z,23.041414
2022-11-30T17:39:50.168Z,22.889136
2022-11-30T17:44:51.963Z,23.753356
2022-11-30T17:49:54.026Z,23.374208
2022-11-30T17:54:55.995Z,24.350554
2022-11-30T17:59:57.754Z,24.273316
2022-11-30T18:04:59.567Z,23.97758
2022-11-30T18:10:01.471Z,24.333782
2022-11-30T18:15:03.215Z,24.06847
2022-11-30T18:20:05.004Z,23.494462
2022-11-30T18:25:07.063Z,23.879404
2022-11-30T18:30:10.108Z,23.702606
2022-11-30T18:35:12.149Z,23.261662
2022-11-30T18:40:14.407Z,23.623644
2022-11-30T18:45:16.339Z,23.349932
2022-11-30T18:50:18.096Z,23.5135
2022-11-30T18:55:20.195Z,23.209622
2022-11-30T19:00:21.973Z,22.70866
2022-11-30T19:05:23.819Z,22.602288
2022-11-30T19:10:25.745Z,22.994042
2022-11-30T19:15:27.544Z,22.717738
2022-11-30T19:20:29.319Z,22.53828
2022-11-30T19:25:31.271Z,22.28518
2022-11-30T19:30:33.017Z,21.866314
2022-11-30T19:35:34.798Z,21.589386
2022-11-30T19:40:36.569Z,21.564662
2022-11-30T19:45:38.476Z,21.54348
2022-11-30T19:50:40.840Z,21.6373
2022-11-30T19:55:43.041Z,21.347318
2022-11-30T20:00:45.054Z,21.204946
2022-11-30T20:05:46.725Z,21.220266
2022-11-30T20:10:48.464Z,21.133448
2022-11-30T20:15:50.224Z,20.364202
2022-11-30T20:20:51.934Z,20.442064
2022-11-30T20:25:53.885Z,20.880782
2022-11-30T20:30:55.666Z,20.652786
2022-11-30T20:35:57.707Z,20.391124
2022-11-30T20:40:59.473Z,20.164946
2022-11-30T20:46:01.332Z,20.172274
2022-11-30T20:51:28.821Z,19.636316
2022-11-30T20:56:32.312Z,19.823522
2022-11-30T21:01:34.051Z,19.81785
2022-11-30T21:06:35.859Z,20.251208
2022-11-30T21:11:37.338Z,19.796152
2022-11-30T21:16:39.122Z,19.597358
2022-11-30T21:21:40.882Z,19.641744
2022-11-30T21:26:42.892Z,19.47112
2022-11-30T21:31:44.677Z,19.742566
2022-11-30T21:36:46.449Z,18.737318
2022-11-30T21:41:48.354Z,19.07478
2022-11-30T21:46:50.221Z,18.572326
2022-11-30T21:51:51.853Z,18.902026
2022-11-30T21:56:53.729Z,18.55953
2022-11-30T22:01:55.313Z,18.147924
2022-11-30T22:06:57.126Z,18.350314
2022-11-30T22:11:58.599Z,18.177302
2022-11-30T22:17:00.187Z,18.537452
2022-11-30T22:22:02.085Z,17.886018
2022-11-30T22:27:03.990Z,17.579264
2022-11-30T22:32:05.641Z,17.232182
2022-11-30T22:37:07.317Z,17.4668
2022-11-30T22:42:09.122Z,17.467682
2022-11-30T22:47:10.824Z,17.777068
2022-11-30T22:52:12.579Z,17.098454
2022-11-30T22:57:14.602Z,17.86314
2022-11-30T23:02:16.243Z,17.588166
2022-11-30T23:07:17.993Z,17.250542
2022-11-30T23:12:36.078Z,16.841582
2022-11-30T23:17:59.428Z,17.398396
2022-11-30T23:23:00.906Z,16.810508
2022-11-30T23:28:02.625Z,17.020592
2022-11-30T23:33:04.237Z,17.588166
2022-11-30T23:38:05.759Z,16.749418
2022-11-30T23:43:07.353Z,16.498734
2022-11-30T23:48:08.884Z,16.223408
2022-11-30T23:53:10.415Z,16.917572
2022-11-30T23:58:12.336Z,16.850756
